Cedar City, UT (84721)

11:00 PM MST on February 27, 2015 (GMT -0700)
West Side | Change Station
CLOSE
Current Station
Personal Weather Station
Location: Parowan, UT
Elevation: 5971 ft
Nearby Weather Stations
Active Advisory: Winter Weather Advisory Active Notice: Public Information Statement

Elev 5971 ft 37.85 °N, 112.83 °W | Updated 13 minutes ago

Mostly Cloudy
Mostly Cloudy
31.8 °F
Feels Like 27 °F
N
4.7
Wind Variable Wind from SSE

Today
High -- | Low -- °F
--% Chance of Precip.
Yesterday
High -- | Low -- °F
Precip. -- in
7:05 AM 6:22 PM
Waxing Gibbous, 75% visible
Pressure 29.63 in
Visibility 10.0 miles
Clouds Mostly Cloudy 7500 ft
Windchill 27 °F
Dew Point 20 °F
Humidity 60%
Rainfall 0.00 in
Snow Depth Not available.
UV 0 out of 12
Pollen 5.20 out of 12
Air Quality Not available.
Flu Activity Not available.
METAR KCDC 280553Z AUTO 18006KT 10SM BKN075 M01/M05 A2963 RMK AO2 SLP033 T10061050 10061 21006 58005

More Conditions Fewer Conditions

Pressure 29.63 in
Visibility 10.0 miles
Clouds Mostly Cloudy 7500 ft
Windchill 27 °F
Dew Point 20 °F
Humidity 60%
Rainfall 0.00 in
Snow Depth Not available.
UV 0 out of 12
Pollen 5.20 out of 12
Air Quality Not available.
Flu Activity Not available.
METAR KCDC 280553Z AUTO 18006KT 10SM BKN075 M01/M05 A2963 RMK AO2 SLP033 T10061050 10061 21006 58005

More Conditions Fewer Conditions

10-Day Weather Forecast

Almanac

Astronomy

Feb. 27, 2015 Rise Set
Actual Time
Civil Twilight
Nautical Twilight
Astronomical Twilight
Moon
Length of Visible Light
Length of Day
Tomorrow will be .
, % of the Moon is Illuminated

Today's Extremes

State Highs State Lows

Community

WunderPhotos

Upload Photos

1,800,974 photos uploaded!

WunderBlogs® & News

Nearby

Air Quality

  Air Quality AQ Index Pollutant
Not available.

Snow Depth

Station Depth Elevation

Earthquake Activity

City Distance Mag. Time & Date
Minimum magnitude displayed is 2.5.

Coastal Water Temperatures

Place Temperature

Nearby Weather Stations

Winter Weather Advisory
Statement as of 7:47 PM MST on February 27, 2015

... Winter Weather Advisory remains in effect until 9 am MST
Sunday...

* affected area... the central and southern mountains of Utah.

* Snow accumulations... 10 to 20 inches.

* Timing... developing this evening... and continuing heavy at
times through Saturday before temporarily tapering off Sunday
morning. Another round of snow is possible Sunday into early
next week.

* Impacts... winter driving conditions can be expected on area
roadways including the higher passes of I-70 and I-15 and
Highway 89.

Precautionary/preparedness actions...

A Winter Weather Advisory for snow means that snow accumulations
will cause primarily travel difficulties. Be prepared for snow
covered roads. Use caution while driving.

For winter Road conditions from the Utah Department of
Transportation... visit
http://www.Udottraffic.Utah.Gov/roadweatherforecast.Aspx or dial
511.